Date,TemperatureHighF,TemperatureAvgF,TemperatureLowF,DewpointHighF,DewpointAvgF,DewpointLowF,HumidityHigh,HumidityAvg,HumidityLow,PressureMaxIn,PressureMinIn,WindSpeedMaxMPH,WindSpeedAvgMPH,GustSpeedMaxMPH,PrecipitationSumIn
2013-2-1,72.2,61.8,52.8,56.0,48.6,38.0,74,62,53,30.27,30.16,12,2,14,0.00
2013-2-2,71.3,62.5,53.7,54.0,49.1,38.0,87,63,50,30.26,30.12,8,1,13,0.00
2013-2-3,74.4,62.1,53.7,53.0,48.6,40.0,91,65,29,30.17,30.07,5,1,10,0.00
2013-2-4,75.3,61.4,48.2,55.0,48.4,41.0,86,65,33,30.14,30.03,5,1,12,0.00
2013-2-5,76.2,65.3,52.8,63.0,57.5,50.0,93,77,54,30.09,30.00,9,1,10,0.00
2013-2-6,78.3,69.5,59.4,67.0,62.0,57.0,94,78,62,30.10,30.02,7,2,11,0.00
2013-2-7,79.0,73.4,68.6,67.0,64.3,62.0,83,73,62,30.07,29.93,8,2,12,0.00
2013-2-8,83.0,74.0,67.2,70.0,66.2,63.0,91,78,58,30.02,29.90,5,1,9,0.00
2013-2-9,76.8,70.4,63.7,67.0,63.3,60.0,93,79,65,30.17,30.01,11,4,15,0.00
2013-2-10,73.2,71.4,69.1,63.0,61.6,59.0,76,71,68,30.26,30.14,14,6,18,0.00
2013-2-11,77.6,72.6,69.1,66.0,63.4,61.0,80,73,66,30.21,30.10,9,2,13,0.00
2013-2-12,83.0,73.2,63.1,70.0,66.1,60.0,92,79,58,30.11,29.96,8,1,11,0.00
2013-2-13,84.6,75.7,67.1,73.0,69.4,64.0,94,81,66,30.00,29.88,9,2,16,0.00
2013-2-14,76.5,69.6,62.4,71.0,66.5,61.0,94,90,81,30.00,29.85,8,2,17,1.30
2013-2-15,72.4,66.2,62.4,67.0,63.9,61.0,95,92,80,30.02,29.93,5,1,9,0.28
2013-2-16,73.7,64.9,54.5,64.0,56.5,44.0,94,76,46,30.08,29.88,6,2,14,0.00
2013-2-17,59.2,51.4,43.9,44.0,29.2,18.0,72,46,24,30.31,30.08,9,2,17,0.00
2013-2-18,67.7,58.6,46.3,57.0,45.2,32.0,70,62,51,30.33,30.21,13,4,16,0.00
2013-2-19,76.6,70.9,59.7,66.0,60.7,53.0,87,71,60,30.20,30.08,11,2,14,0.01
2013-2-20,76.3,69.7,62.5,67.0,63.8,60.0,94,82,60,30.11,30.01,9,1,13,0.02
2013-2-21,79.7,71.7,63.0,69.0,65.3,61.0,94,81,66,30.09,29.99,8,2,14,0.00
2013-2-22,80.0,75.3,71.8,71.0,69.2,66.0,88,81,73,30.09,30.01,10,4,16,0.00
2013-2-23,82.0,75.8,70.8,73.0,69.8,68.0,92,82,72,30.04,29.91,11,3,15,0.33
2013-2-24,87.6,76.3,69.8,74.0,70.4,68.0,95,83,55,29.99,29.89,7,1,10,0.00
2013-2-25,82.9,75.0,68.0,74.0,70.1,66.0,93,84,72,29.91,29.80,10,2,16,0.00
2013-2-26,86.8,79.1,74.2,73.0,70.9,68.0,89,77,57,29.88,29.79,11,3,15,0.01
2013-2-27,77.1,70.7,62.6,73.0,65.2,60.0,94,83,63,29.96,29.85,4,1,8,0.50
2013-2-28,71.0,63.8,58.6,63.0,54.1,49.0,94,72,47,30.00,29.90,4,1,8,0.00